sensor_id;sensor_type;location;lat;lon;timestamp;temperature;humidity
11591;DHT22;5851;54.050;9.974;2023-08-31T00:02:09;15.90;94.50
11591;DHT22;5851;54.050;9.974;2023-08-31T00:04:36;15.90;94.60
11591;DHT22;5851;54.050;9.974;2023-08-31T00:07:03;15.90;94.70
11591;DHT22;5851;54.050;9.974;2023-08-31T00:09:30;15.90;94.70
11591;DHT22;5851;54.050;9.974;2023-08-31T00:11:58;15.90;94.60
11591;DHT22;5851;54.050;9.974;2023-08-31T00:14:25;15.80;94.60
11591;DHT22;5851;54.050;9.974;2023-08-31T00:16:52;15.90;94.80
11591;DHT22;5851;54.050;9.974;2023-08-31T00:19:19;15.90;94.60
11591;DHT22;5851;54.050;9.974;2023-08-31T00:21:46;15.90;94.80
11591;DHT22;5851;54.050;9.974;2023-08-31T00:24:14;15.90;94.40
11591;DHT22;5851;54.050;9.974;2023-08-31T00:26:41;15.80;94.50
11591;DHT22;5851;54.050;9.974;2023-08-31T00:29:09;15.70;94.60
11591;DHT22;5851;54.050;9.974;2023-08-31T00:31:37;15.80;94.60
11591;DHT22;5851;54.050;9.974;2023-08-31T00:34:04;15.80;94.90
11591;DHT22;5851;54.050;9.974;2023-08-31T00:36:32;15.70;94.70
11591;DHT22;5851;54.050;9.974;2023-08-31T00:39:02;15.70;94.70
11591;DHT22;5851;54.050;9.974;2023-08-31T00:41:31;15.70;94.70
11591;DHT22;5851;54.050;9.974;2023-08-31T00:43:58;15.70;94.70
11591;DHT22;5851;54.050;9.974;2023-08-31T00:46:26;15.70;94.70
11591;DHT22;5851;54.050;9.974;2023-08-31T00:48:55;15.70;94.50
11591;DHT22;5851;54.050;9.974;2023-08-31T00:51:22;15.60;94.60
11591;DHT22;5851;54.050;9.974;2023-08-31T00:53:49;15.70;94.60
11591;DHT22;5851;54.050;9.974;2023-08-31T00:56:19;15.60;94.40
11591;DHT22;5851;54.050;9.974;2023-08-31T00:58:46;15.60;94.70
11591;DHT22;5851;54.050;9.974;2023-08-31T01:01:18;15.60;94.60
11591;DHT22;5851;54.050;9.974;2023-08-31T01:03:54;15.60;94.70
11591;DHT22;5851;54.050;9.974;2023-08-31T01:06:29;15.60;94.40
11591;DHT22;5851;54.050;9.974;2023-08-31T01:09:15;15.60;94.40
11591;DHT22;5851;54.050;9.974;2023-08-31T01:11:56;15.50;94.40
11591;DHT22;5851;54.050;9.974;2023-08-31T01:14:27;15.60;94.50
11591;DHT22;5851;54.050;9.974;2023-08-31T01:16:58;15.60;94.50
11591;DHT22;5851;54.050;9.974;2023-08-31T01:19:41;15.60;94.20
11591;DHT22;5851;54.050;9.974;2023-08-31T01:22:13;15.50;94.40
11591;DHT22;5851;54.050;9.974;2023-08-31T01:24:44;15.50;94.60
11591;DHT22;5851;54.050;9.974;2023-08-31T01:27:11;15.50;94.40
11591;DHT22;5851;54.050;9.974;2023-08-31T01:29:38;15.50;94.50
11591;DHT22;5851;54.050;9.974;2023-08-31T01:32:06;15.60;94.50
11591;DHT22;5851;54.050;9.974;2023-08-31T01:34:33;15.50;94.40
11591;DHT22;5851;54.050;9.974;2023-08-31T01:37:10;15.50;94.90
11591;DHT22;5851;54.050;9.974;2023-08-31T01:39:40;15.30;94.70
11591;DHT22;5851;54.050;9.974;2023-08-31T01:42:12;15.30;95.00
11591;DHT22;5851;54.050;9.974;2023-08-31T01:44:41;15.50;94.70
11591;DHT22;5851;54.050;9.974;2023-08-31T01:47:08;15.30;94.80
11591;DHT22;5851;54.050;9.974;2023-08-31T01:49:36;15.30;94.60
11591;DHT22;5851;54.050;9.974;2023-08-31T01:52:04;15.30;94.90
11591;DHT22;5851;54.050;9.974;2023-08-31T01:54:31;15.40;94.70
11591;DHT22;5851;54.050;9.974;2023-08-31T01:56:58;15.40;94.70
11591;DHT22;5851;54.050;9.974;2023-08-31T01:59:26;15.40;94.60
11591;DHT22;5851;54.050;9.974;2023-08-31T02:01:53;15.50;94.40
11591;DHT22;5851;54.050;9.974;2023-08-31T02:04:20;15.40;94.40
11591;DHT22;5851;54.050;9.974;2023-08-31T02:06:47;15.50;94.50
11591;DHT22;5851;54.050;9.974;2023-08-31T02:09:14;15.40;94.60
11591;DHT22;5851;54.050;9.974;2023-08-31T02:11:41;15.40;94.40
11591;DHT22;5851;54.050;9.974;2023-08-31T02:14:08;15.40;94.60
11591;DHT22;5851;54.050;9.974;2023-08-31T02:16:36;15.30;94.70
11591;DHT22;5851;54.050;9.974;2023-08-31T02:19:03;15.40;94.60
11591;DHT22;5851;54.050;9.974;2023-08-31T02:21:30;15.40;94.80
11591;DHT22;5851;54.050;9.974;2023-08-31T02:23:57;15.40;94.90
11591;DHT22;5851;54.050;9.974;2023-08-31T02:26:24;15.40;94.80
11591;DHT22;5851;54.050;9.974;2023-08-31T02:28:51;15.40;94.70
11591;DHT22;5851;54.050;9.974;2023-08-31T02:31:18;15.40;94.60
11591;DHT22;5851;54.050;9.974;2023-08-31T02:33:47;15.30;94.60
11591;DHT22;5851;54.050;9.974;2023-08-31T02:36:14;15.30;94.50
11591;DHT22;5851;54.050;9.974;2023-08-31T02:38:41;15.30;94.40
11591;DHT22;5851;54.050;9.974;2023-08-31T02:41:08;15.20;94.70
11591;DHT22;5851;54.050;9.974;2023-08-31T02:43:35;15.20;94.60
11591;DHT22;5851;54.050;9.974;2023-08-31T02:46:02;15.30;94.40
11591;DHT22;5851;54.050;9.974;2023-08-31T02:48:29;15.30;94.40
11591;DHT22;5851;54.050;9.974;2023-08-31T02:50:58;15.30;94.40
11591;DHT22;5851;54.050;9.974;2023-08-31T02:53:26;15.30;94.50
11591;DHT22;5851;54.050;9.974;2023-08-31T02:55:53;15.30;94.40
11591;DHT22;5851;54.050;9.974;2023-08-31T02:58:20;15.30;94.80
11591;DHT22;5851;54.050;9.974;2023-08-31T03:00:48;15.20;94.50
11591;DHT22;5851;54.050;9.974;2023-08-31T03:03:15;15.20;94.50
11591;DHT22;5851;54.050;9.974;2023-08-31T03:05:42;15.20;94.30
11591;DHT22;5851;54.050;9.974;2023-08-31T03:08:11;15.20;94.30
11591;DHT22;5851;54.050;9.974;2023-08-31T03:10:38;15.20;94.30
11591;DHT22;5851;54.050;9.974;2023-08-31T03:13:05;15.20;94.40
11591;DHT22;5851;54.050;9.974;2023-08-31T03:15:32;15.10;94.40
11591;DHT22;5851;54.050;9.974;2023-08-31T03:18:00;15.00;94.40
11591;DHT22;5851;54.050;9.974;2023-08-31T03:20:27;15.00;94.70
11591;DHT22;5851;54.050;9.974;2023-08-31T03:22:53;15.00;94.40
11591;DHT22;5851;54.050;9.974;2023-08-31T03:25:22;15.00;94.90
11591;DHT22;5851;54.050;9.974;2023-08-31T03:27:49;15.10;94.50
11591;DHT22;5851;54.050;9.974;2023-08-31T03:30:16;15.10;94.40
11591;DHT22;5851;54.050;9.974;2023-08-31T03:32:43;15.00;94.20
11591;DHT22;5851;54.050;9.974;2023-08-31T03:35:10;14.90;94.50
11591;DHT22;5851;54.050;9.974;2023-08-31T03:37:37;15.00;94.30
11591;DHT22;5851;54.050;9.974;2023-08-31T03:40:05;15.00;94.70
11591;DHT22;5851;54.050;9.974;2023-08-31T03:42:34;15.00;94.30
11591;DHT22;5851;54.050;9.974;2023-08-31T03:45:01;15.00;94.40
11591;DHT22;5851;54.050;9.974;2023-08-31T03:47:28;15.00;94.30
11591;DHT22;5851;54.050;9.974;2023-08-31T03:49:56;14.90;94.40
11591;DHT22;5851;54.050;9.974;2023-08-31T03:52:23;14.80;94.40
11591;DHT22;5851;54.050;9.974;2023-08-31T03:54:51;14.80;94.30
11591;DHT22;5851;54.050;9.974;2023-08-31T03:57:18;14.90;94.30
11591;DHT22;5851;54.050;9.974;2023-08-31T03:59:47;14.90;94.20
11591;DHT22;5851;54.050;9.974;2023-08-31T04:02:14;14.90;94.20
11591;DHT22;5851;54.050;9.974;2023-08-31T04:04:41;14.80;94.00
11591;DHT22;5851;54.050;9.974;2023-08-31T04:07:11;14.80;94.10
11591;DHT22;5851;54.050;9.974;2023-08-31T04:09:37;14.80;94.00
11591;DHT22;5851;54.050;9.974;2023-08-31T04:12:05;14.80;93.90
11591;DHT22;5851;54.050;9.974;2023-08-31T04:14:32;14.80;93.80
11591;DHT22;5851;54.050;9.974;2023-08-31T04:17:00;14.70;93.90
11591;DHT22;5851;54.050;9.974;2023-08-31T04:19:30;14.60;93.90
11591;DHT22;5851;54.050;9.974;2023-08-31T04:21:57;14.60;93.90
11591;DHT22;5851;54.050;9.974;2023-08-31T04:24:24;14.60;93.90
11591;DHT22;5851;54.050;9.974;2023-08-31T04:26:51;14.60;93.80
11591;DHT22;5851;54.050;9.974;2023-08-31T04:29:18;14.60;93.80
11591;DHT22;5851;54.050;9.974;2023-08-31T04:31:45;14.60;93.60
11591;DHT22;5851;54.050;9.974;2023-08-31T04:34:13;14.60;93.70
11591;DHT22;5851;54.050;9.974;2023-08-31T04:36:40;14.60;93.60
11591;DHT22;5851;54.050;9.974;2023-08-31T04:39:07;14.60;93.50
11591;DHT22;5851;54.050;9.974;2023-08-31T04:41:34;14.50;93.50
11591;DHT22;5851;54.050;9.974;2023-08-31T04:44:01;14.50;93.50
11591;DHT22;5851;54.050;9.974;2023-08-31T04:46:28;14.50;93.50
11591;DHT22;5851;54.050;9.974;2023-08-31T04:48:55;14.40;93.40
11591;DHT22;5851;54.050;9.974;2023-08-31T04:51:30;14.20;93.80
11591;DHT22;5851;54.050;9.974;2023-08-31T04:53:58;14.30;93.60
11591;DHT22;5851;54.050;9.974;2023-08-31T04:56:25;14.30;93.50
11591;DHT22;5851;54.050;9.974;2023-08-31T04:58:52;14.30;93.50
11591;DHT22;5851;54.050;9.974;2023-08-31T05:01:19;14.20;93.80
11591;DHT22;5851;54.050;9.974;2023-08-31T05:03:45;14.20;93.60
11591;DHT22;5851;54.050;9.974;2023-08-31T05:06:12;14.30;93.60
11591;DHT22;5851;54.050;9.974;2023-08-31T05:08:40;14.30;93.40
11591;DHT22;5851;54.050;9.974;2023-08-31T05:11:07;14.20;93.20
11591;DHT22;5851;54.050;9.974;2023-08-31T05:13:34;14.20;93.70
11591;DHT22;5851;54.050;9.974;2023-08-31T05:16:03;14.20;93.40
11591;DHT22;5851;54.050;9.974;2023-08-31T05:18:30;14.20;93.50
11591;DHT22;5851;54.050;9.974;2023-08-31T05:20:57;14.10;93.50
11591;DHT22;5851;54.050;9.974;2023-08-31T05:23:24;14.10;93.70
11591;DHT22;5851;54.050;9.974;2023-08-31T05:25:52;14.00;93.60
11591;DHT22;5851;54.050;9.974;2023-08-31T05:28:19;14.10;93.60
11591;DHT22;5851;54.050;9.974;2023-08-31T05:30:48;14.10;93.40
11591;DHT22;5851;54.050;9.974;2023-08-31T05:33:16;14.10;93.40
11591;DHT22;5851;54.050;9.974;2023-08-31T05:35:43;14.10;93.50
11591;DHT22;5851;54.050;9.974;2023-08-31T05:38:10;14.10;93.50
11591;DHT22;5851;54.050;9.974;2023-08-31T05:40:37;14.10;93.50
11591;DHT22;5851;54.050;9.974;2023-08-31T05:43:06;14.10;93.60
11591;DHT22;5851;54.050;9.974;2023-08-31T05:45:33;14.10;93.40
11591;DHT22;5851;54.050;9.974;2023-08-31T05:48:00;14.10;93.40
11591;DHT22;5851;54.050;9.974;2023-08-31T05:50:27;14.10;93.60
11591;DHT22;5851;54.050;9.974;2023-08-31T05:52:54;14.10;93.40
11591;DHT22;5851;54.050;9.974;2023-08-31T05:55:22;14.10;93.20
11591;DHT22;5851;54.050;9.974;2023-08-31T05:57:49;14.10;93.50
11591;DHT22;5851;54.050;9.974;2023-08-31T06:00:18;14.10;93.40
11591;DHT22;5851;54.050;9.974;2023-08-31T06:02:45;14.20;93.50
11591;DHT22;5851;54.050;9.974;2023-08-31T06:05:12;14.20;93.30
11591;DHT22;5851;54.050;9.974;2023-08-31T06:07:41;14.20;93.60
11591;DHT22;5851;54.050;9.974;2023-08-31T06:10:09;14.20;93.30
11591;DHT22;5851;54.050;9.974;2023-08-31T06:12:36;14.20;93.30
11591;DHT22;5851;54.050;9.974;2023-08-31T06:15:06;14.20;93.30
11591;DHT22;5851;54.050;9.974;2023-08-31T06:17:34;14.30;93.40
11591;DHT22;5851;54.050;9.974;2023-08-31T06:20:01;14.30;93.40
11591;DHT22;5851;54.050;9.974;2023-08-31T06:22:30;14.20;93.50
11591;DHT22;5851;54.050;9.974;2023-08-31T06:24:57;14.20;93.40
11591;DHT22;5851;54.050;9.974;2023-08-31T06:27:24;14.30;93.40
11591;DHT22;5851;54.050;9.974;2023-08-31T06:29:51;14.40;93.10
11591;DHT22;5851;54.050;9.974;2023-08-31T06:32:18;14.20;93.10
11591;DHT22;5851;54.050;9.974;2023-08-31T06:34:47;14.20;93.50
11591;DHT22;5851;54.050;9.974;2023-08-31T06:37:14;14.30;93.40
11591;DHT22;5851;54.050;9.974;2023-08-31T06:39:41;14.30;93.70
11591;DHT22;5851;54.050;9.974;2023-08-31T06:42:07;14.10;94.30
11591;DHT22;5851;54.050;9.974;2023-08-31T06:44:34;14.30;94.20
11591;DHT22;5851;54.050;9.974;2023-08-31T06:47:02;14.40;93.60
11591;DHT22;5851;54.050;9.974;2023-08-31T06:49:31;14.40;93.60
11591;DHT22;5851;54.050;9.974;2023-08-31T06:52:00;14.40;93.20
11591;DHT22;5851;54.050;9.974;2023-08-31T06:54:28;14.40;93.10
11591;DHT22;5851;54.050;9.974;2023-08-31T06:56:55;14.40;93.30
11591;DHT22;5851;54.050;9.974;2023-08-31T06:59:22;14.50;92.80
11591;DHT22;5851;54.050;9.974;2023-08-31T07:01:48;14.30;93.20
11591;DHT22;5851;54.050;9.974;2023-08-31T07:04:15;14.20;93.80
11591;DHT22;5851;54.050;9.974;2023-08-31T07:06:42;14.40;93.80
11591;DHT22;5851;54.050;9.974;2023-08-31T07:09:10;14.60;93.30
11591;DHT22;5851;54.050;9.974;2023-08-31T07:11:37;14.50;92.90
11591;DHT22;5851;54.050;9.974;2023-08-31T07:14:04;14.70;93.30
11591;DHT22;5851;54.050;9.974;2023-08-31T07:16:31;14.80;92.90
11591;DHT22;5851;54.050;9.974;2023-08-31T07:18:58;15.00;93.90
11591;DHT22;5851;54.050;9.974;2023-08-31T07:21:25;15.10;93.00
11591;DHT22;5851;54.050;9.974;2023-08-31T07:23:53;14.90;93.30
11591;DHT22;5851;54.050;9.974;2023-08-31T07:26:21;15.10;94.00
11591;DHT22;5851;54.050;9.974;2023-08-31T07:28:48;15.10;93.00
11591;DHT22;5851;54.050;9.974;2023-08-31T07:31:15;15.10;92.40
11591;DHT22;5851;54.050;9.974;2023-08-31T07:33:42;15.10;93.60
11591;DHT22;5851;54.050;9.974;2023-08-31T07:36:09;15.30;93.40
11591;DHT22;5851;54.050;9.974;2023-08-31T07:38:36;15.40;92.60
11591;DHT22;5851;54.050;9.974;2023-08-31T07:41:03;15.30;92.40
11591;DHT22;5851;54.050;9.974;2023-08-31T07:43:32;15.20;92.50
11591;DHT22;5851;54.050;9.974;2023-08-31T07:45:59;15.10;92.60
11591;DHT22;5851;54.050;9.974;2023-08-31T07:48:26;14.90;92.70
11591;DHT22;5851;54.050;9.974;2023-08-31T07:50:52;14.80;92.90
11591;DHT22;5851;54.050;9.974;2023-08-31T07:53:19;14.90;92.80
11591;DHT22;5851;54.050;9.974;2023-08-31T07:55:53;14.90;92.60
11591;DHT22;5851;54.050;9.974;2023-08-31T07:58:21;14.90;92.50
11591;DHT22;5851;54.050;9.974;2023-08-31T08:00:52;14.90;93.00
11591;DHT22;5851;54.050;9.974;2023-08-31T08:03:19;14.90;92.80
11591;DHT22;5851;54.050;9.974;2023-08-31T08:05:46;15.00;92.80
11591;DHT22;5851;54.050;9.974;2023-08-31T08:08:13;15.00;92.60
11591;DHT22;5851;54.050;9.974;2023-08-31T08:10:40;15.10;92.90
11591;DHT22;5851;54.050;9.974;2023-08-31T08:13:08;14.90;92.20
11591;DHT22;5851;54.050;9.974;2023-08-31T08:15:35;15.10;93.40
11591;DHT22;5851;54.050;9.974;2023-08-31T08:18:04;15.20;93.80
11591;DHT22;5851;54.050;9.974;2023-08-31T08:20:31;15.30;92.90
11591;DHT22;5851;54.050;9.974;2023-08-31T08:22:58;15.50;94.00
11591;DHT22;5851;54.050;9.974;2023-08-31T08:25:25;15.40;92.10
11591;DHT22;5851;54.050;9.974;2023-08-31T08:27:52;15.40;92.90
11591;DHT22;5851;54.050;9.974;2023-08-31T08:30:19;15.50;92.80
11591;DHT22;5851;54.050;9.974;2023-08-31T08:32:46;15.50;91.30
11591;DHT22;5851;54.050;9.974;2023-08-31T08:35:14;15.20;91.60
11591;DHT22;5851;54.050;9.974;2023-08-31T08:37:41;15.60;92.50
11591;DHT22;5851;54.050;9.974;2023-08-31T08:40:10;15.80;92.80
11591;DHT22;5851;54.050;9.974;2023-08-31T08:42:40;15.70;91.40
11591;DHT22;5851;54.050;9.974;2023-08-31T08:45:09;15.50;91.60
11591;DHT22;5851;54.050;9.974;2023-08-31T08:47:42;15.60;92.40
11591;DHT22;5851;54.050;9.974;2023-08-31T08:50:09;15.80;92.10
11591;DHT22;5851;54.050;9.974;2023-08-31T08:52:38;15.90;91.60
11591;DHT22;5851;54.050;9.974;2023-08-31T08:55:06;16.00;91.60
11591;DHT22;5851;54.050;9.974;2023-08-31T08:57:34;16.00;92.60
11591;DHT22;5851;54.050;9.974;2023-08-31T09:00:01;16.30;92.20
11591;DHT22;5851;54.050;9.974;2023-08-31T09:02:29;16.20;91.40
11591;DHT22;5851;54.050;9.974;2023-08-31T09:04:56;16.10;91.60
11591;DHT22;5851;54.050;9.974;2023-08-31T09:07:23;16.00;91.20
11591;DHT22;5851;54.050;9.974;2023-08-31T09:09:52;15.90;91.10
11591;DHT22;5851;54.050;9.974;2023-08-31T09:12:22;16.00;91.50
11591;DHT22;5851;54.050;9.974;2023-08-31T09:14:59;15.90;91.10
11591;DHT22;5851;54.050;9.974;2023-08-31T09:17:26;15.90;90.60
11591;DHT22;5851;54.050;9.974;2023-08-31T09:20:04;15.80;91.40
11591;DHT22;5851;54.050;9.974;2023-08-31T09:22:33;15.90;91.30
11591;DHT22;5851;54.050;9.974;2023-08-31T09:25:02;15.80;90.70
11591;DHT22;5851;54.050;9.974;2023-08-31T09:27:29;15.70;90.90
11591;DHT22;5851;54.050;9.974;2023-08-31T09:29:58;15.80;91.10
11591;DHT22;5851;54.050;9.974;2023-08-31T09:32:25;15.70;90.90
11591;DHT22;5851;54.050;9.974;2023-08-31T09:34:52;15.60;90.70
11591;DHT22;5851;54.050;9.974;2023-08-31T09:37:19;15.60;90.80
11591;DHT22;5851;54.050;9.974;2023-08-31T09:39:47;15.70;91.00
11591;DHT22;5851;54.050;9.974;2023-08-31T09:42:15;16.00;91.90
11591;DHT22;5851;54.050;9.974;2023-08-31T09:44:43;16.20;90.70
11591;DHT22;5851;54.050;9.974;2023-08-31T09:47:13;16.40;91.20
11591;DHT22;5851;54.050;9.974;2023-08-31T09:49:41;16.60;90.50
11591;DHT22;5851;54.050;9.974;2023-08-31T09:52:09;16.50;90.60
11591;DHT22;5851;54.050;9.974;2023-08-31T09:54:36;16.60;90.70
11591;DHT22;5851;54.050;9.974;2023-08-31T09:57:05;16.70;90.10
11591;DHT22;5851;54.050;9.974;2023-08-31T09:59:33;16.80;90.00
11591;DHT22;5851;54.050;9.974;2023-08-31T10:02:01;16.80;89.50
11591;DHT22;5851;54.050;9.974;2023-08-31T10:04:29;16.60;87.30
11591;DHT22;5851;54.050;9.974;2023-08-31T10:06:59;16.40;88.30
11591;DHT22;5851;54.050;9.974;2023-08-31T10:09:26;16.30;88.80
11591;DHT22;5851;54.050;9.974;2023-08-31T10:11:54;16.30;89.50
11591;DHT22;5851;54.050;9.974;2023-08-31T10:14:22;16.20;89.40
11591;DHT22;5851;54.050;9.974;2023-08-31T10:16:50;16.30;90.10
11591;DHT22;5851;54.050;9.974;2023-08-31T10:19:19;16.30;90.00
11591;DHT22;5851;54.050;9.974;2023-08-31T10:21:46;16.30;89.40
11591;DHT22;5851;54.050;9.974;2023-08-31T10:24:13;16.40;89.80
11591;DHT22;5851;54.050;9.974;2023-08-31T10:26:39;16.60;89.90
11591;DHT22;5851;54.050;9.974;2023-08-31T10:29:06;16.70;88.50
11591;DHT22;5851;54.050;9.974;2023-08-31T10:31:53;16.70;89.50
11591;DHT22;5851;54.050;9.974;2023-08-31T10:34:34;16.70;88.50
11591;DHT22;5851;54.050;9.974;2023-08-31T10:37:01;16.60;89.60
11591;DHT22;5851;54.050;9.974;2023-08-31T10:39:37;16.50;90.10
11591;DHT22;5851;54.050;9.974;2023-08-31T10:42:04;16.50;89.70
11591;DHT22;5851;54.050;9.974;2023-08-31T10:44:31;16.50;89.80
11591;DHT22;5851;54.050;9.974;2023-08-31T10:47:03;16.60;90.00
11591;DHT22;5851;54.050;9.974;2023-08-31T10:49:30;16.80;89.00
11591;DHT22;5851;54.050;9.974;2023-08-31T10:52:15;16.90;87.50
11591;DHT22;5851;54.050;9.974;2023-08-31T10:54:43;16.90;86.00
11591;DHT22;5851;54.050;9.974;2023-08-31T10:57:10;16.80;85.10
11591;DHT22;5851;54.050;9.974;2023-08-31T10:59:46;16.70;87.20
11591;DHT22;5851;54.050;9.974;2023-08-31T11:02:33;16.60;86.40
11591;DHT22;5851;54.050;9.974;2023-08-31T11:05:02;16.70;87.10
11591;DHT22;5851;54.050;9.974;2023-08-31T11:07:30;16.80;85.90
11591;DHT22;5851;54.050;9.974;2023-08-31T11:10:11;16.90;85.90
11591;DHT22;5851;54.050;9.974;2023-08-31T11:12:38;17.00;86.20
11591;DHT22;5851;54.050;9.974;2023-08-31T11:15:06;17.10;86.90
11591;DHT22;5851;54.050;9.974;2023-08-31T11:17:36;17.00;85.60
11591;DHT22;5851;54.050;9.974;2023-08-31T11:20:06;16.90;85.20
11591;DHT22;5851;54.050;9.974;2023-08-31T11:22:38;16.90;84.70
11591;DHT22;5851;54.050;9.974;2023-08-31T11:25:07;16.80;83.80
11591;DHT22;5851;54.050;9.974;2023-08-31T11:27:34;16.80;84.30
11591;DHT22;5851;54.050;9.974;2023-08-31T11:30:01;16.70;84.50
11591;DHT22;5851;54.050;9.974;2023-08-31T11:32:28;16.80;85.60
11591;DHT22;5851;54.050;9.974;2023-08-31T11:34:57;17.00;85.10
11591;DHT22;5851;54.050;9.974;2023-08-31T11:37:24;17.00;85.10
11591;DHT22;5851;54.050;9.974;2023-08-31T11:39:53;16.90;83.50
11591;DHT22;5851;54.050;9.974;2023-08-31T11:42:21;17.00;83.40
11591;DHT22;5851;54.050;9.974;2023-08-31T11:44:49;17.20;81.70
11591;DHT22;5851;54.050;9.974;2023-08-31T11:47:17;17.30;82.60
11591;DHT22;5851;54.050;9.974;2023-08-31T11:49:45;17.20;83.70
11591;DHT22;5851;54.050;9.974;2023-08-31T11:52:15;17.20;83.00
11591;DHT22;5851;54.050;9.974;2023-08-31T11:54:43;17.10;81.00
11591;DHT22;5851;54.050;9.974;2023-08-31T11:57:11;17.00;82.90
11591;DHT22;5851;54.050;9.974;2023-08-31T11:59:39;17.10;80.50
11591;DHT22;5851;54.050;9.974;2023-08-31T12:02:07;17.00;82.90
11591;DHT22;5851;54.050;9.974;2023-08-31T12:04:42;17.00;82.40
11591;DHT22;5851;54.050;9.974;2023-08-31T12:07:10;17.00;83.30
11591;DHT22;5851;54.050;9.974;2023-08-31T12:09:38;17.10;81.30
11591;DHT22;5851;54.050;9.974;2023-08-31T12:12:07;16.90;82.80
11591;DHT22;5851;54.050;9.974;2023-08-31T12:14:37;16.50;81.60
11591;DHT22;5851;54.050;9.974;2023-08-31T12:17:06;16.20;86.30
11591;DHT22;5851;54.050;9.974;2023-08-31T12:19:37;16.00;87.60
11591;DHT22;5851;54.050;9.974;2023-08-31T12:22:04;15.60;89.20
11591;DHT22;5851;54.050;9.974;2023-08-31T12:24:38;15.10;90.50
11591;DHT22;5851;54.050;9.974;2023-08-31T12:27:06;15.20;91.20
11591;DHT22;5851;54.050;9.974;2023-08-31T12:29:33;15.50;91.00
11591;DHT22;5851;54.050;9.974;2023-08-31T12:32:00;15.50;91.20
11591;DHT22;5851;54.050;9.974;2023-08-31T12:34:27;15.40;91.50
11591;DHT22;5851;54.050;9.974;2023-08-31T12:36:54;15.50;91.30
11591;DHT22;5851;54.050;9.974;2023-08-31T12:39:25;15.40;91.70
11591;DHT22;5851;54.050;9.974;2023-08-31T12:41:53;15.40;91.60
11591;DHT22;5851;54.050;9.974;2023-08-31T12:44:20;15.50;91.90
11591;DHT22;5851;54.050;9.974;2023-08-31T12:46:47;15.70;91.60
11591;DHT22;5851;54.050;9.974;2023-08-31T12:49:14;15.70;91.80
11591;DHT22;5851;54.050;9.974;2023-08-31T12:51:41;15.80;92.50
11591;DHT22;5851;54.050;9.974;2023-08-31T12:54:08;16.00;92.10
11591;DHT22;5851;54.050;9.974;2023-08-31T12:56:35;16.10;92.00
11591;DHT22;5851;54.050;9.974;2023-08-31T12:59:05;16.20;92.40
11591;DHT22;5851;54.050;9.974;2023-08-31T13:01:32;16.30;92.00
11591;DHT22;5851;54.050;9.974;2023-08-31T13:03:59;16.40;91.80
11591;DHT22;5851;54.050;9.974;2023-08-31T13:06:26;16.40;90.70
11591;DHT22;5851;54.050;9.974;2023-08-31T13:08:54;16.40;91.40
11591;DHT22;5851;54.050;9.974;2023-08-31T13:11:21;16.40;91.70
11591;DHT22;5851;54.050;9.974;2023-08-31T13:13:50;16.50;91.70
11591;DHT22;5851;54.050;9.974;2023-08-31T13:16:19;16.60;90.80
11591;DHT22;5851;54.050;9.974;2023-08-31T13:18:47;16.80;88.80
11591;DHT22;5851;54.050;9.974;2023-08-31T13:21:14;16.70;88.90
11591;DHT22;5851;54.050;9.974;2023-08-31T13:23:41;16.60;88.50
11591;DHT22;5851;54.050;9.974;2023-08-31T13:26:09;16.60;88.20
11591;DHT22;5851;54.050;9.974;2023-08-31T13:28:37;16.50;88.50
11591;DHT22;5851;54.050;9.974;2023-08-31T13:31:04;16.70;87.80
11591;DHT22;5851;54.050;9.974;2023-08-31T13:33:33;16.70;85.70
11591;DHT22;5851;54.050;9.974;2023-08-31T13:36:00;16.70;87.40
11591;DHT22;5851;54.050;9.974;2023-08-31T13:38:26;16.70;87.80
11591;DHT22;5851;54.050;9.974;2023-08-31T13:40:57;16.80;87.10
11591;DHT22;5851;54.050;9.974;2023-08-31T13:43:24;16.80;87.10
11591;DHT22;5851;54.050;9.974;2023-08-31T13:45:51;16.70;86.90
11591;DHT22;5851;54.050;9.974;2023-08-31T13:48:18;16.70;86.60
11591;DHT22;5851;54.050;9.974;2023-08-31T13:50:47;16.80;86.00
11591;DHT22;5851;54.050;9.974;2023-08-31T13:53:14;16.80;85.80
11591;DHT22;5851;54.050;9.974;2023-08-31T13:55:41;16.80;86.60
11591;DHT22;5851;54.050;9.974;2023-08-31T13:58:08;16.80;86.20
11591;DHT22;5851;54.050;9.974;2023-08-31T14:00:35;16.80;83.30
11591;DHT22;5851;54.050;9.974;2023-08-31T14:03:04;16.80;84.90
11591;DHT22;5851;54.050;9.974;2023-08-31T14:05:31;16.90;84.20
11591;DHT22;5851;54.050;9.974;2023-08-31T14:08:00;16.90;85.70
11591;DHT22;5851;54.050;9.974;2023-08-31T14:10:30;17.10;84.10
11591;DHT22;5851;54.050;9.974;2023-08-31T14:12:58;17.10;84.30
11591;DHT22;5851;54.050;9.974;2023-08-31T14:15:25;17.10;81.80
11591;DHT22;5851;54.050;9.974;2023-08-31T14:17:53;17.10;84.20
11591;DHT22;5851;54.050;9.974;2023-08-31T14:20:19;17.00;84.50
11591;DHT22;5851;54.050;9.974;2023-08-31T14:22:46;16.90;84.70
11591;DHT22;5851;54.050;9.974;2023-08-31T14:25:15;16.90;85.60
11591;DHT22;5851;54.050;9.974;2023-08-31T14:27:42;16.90;85.00
11591;DHT22;5851;54.050;9.974;2023-08-31T14:30:10;16.80;86.00
11591;DHT22;5851;54.050;9.974;2023-08-31T14:32:37;16.90;85.80
11591;DHT22;5851;54.050;9.974;2023-08-31T14:35:04;16.90;86.60
11591;DHT22;5851;54.050;9.974;2023-08-31T14:37:32;16.90;86.60
11591;DHT22;5851;54.050;9.974;2023-08-31T14:39:58;16.80;86.40
11591;DHT22;5851;54.050;9.974;2023-08-31T14:42:28;16.80;86.80
11591;DHT22;5851;54.050;9.974;2023-08-31T14:44:55;16.90;86.70
11591;DHT22;5851;54.050;9.974;2023-08-31T14:47:22;16.90;87.30
11591;DHT22;5851;54.050;9.974;2023-08-31T14:49:49;16.90;87.00
11591;DHT22;5851;54.050;9.974;2023-08-31T14:52:15;17.10;86.60
11591;DHT22;5851;54.050;9.974;2023-08-31T14:54:42;17.20;83.00
11591;DHT22;5851;54.050;9.974;2023-08-31T14:57:09;17.20;84.60
11591;DHT22;5851;54.050;9.974;2023-08-31T14:59:37;17.30;82.00
11591;DHT22;5851;54.050;9.974;2023-08-31T15:02:05;17.30;81.90
11591;DHT22;5851;54.050;9.974;2023-08-31T15:04:32;17.30;82.60
11591;DHT22;5851;54.050;9.974;2023-08-31T15:06:59;17.20;83.70
11591;DHT22;5851;54.050;9.974;2023-08-31T15:09:26;17.20;82.90
11591;DHT22;5851;54.050;9.974;2023-08-31T15:11:53;17.10;83.50
11591;DHT22;5851;54.050;9.974;2023-08-31T15:14:20;17.00;83.00
11591;DHT22;5851;54.050;9.974;2023-08-31T15:16:48;17.00;82.70
11591;DHT22;5851;54.050;9.974;2023-08-31T15:19:15;17.00;81.80
11591;DHT22;5851;54.050;9.974;2023-08-31T15:21:42;17.00;82.90
11591;DHT22;5851;54.050;9.974;2023-08-31T15:24:08;17.00;83.70
11591;DHT22;5851;54.050;9.974;2023-08-31T15:26:35;17.00;84.00
11591;DHT22;5851;54.050;9.974;2023-08-31T15:29:02;16.90;84.70
11591;DHT22;5851;54.050;9.974;2023-08-31T15:31:30;16.90;85.50
11591;DHT22;5851;54.050;9.974;2023-08-31T15:33:58;17.00;85.50
11591;DHT22;5851;54.050;9.974;2023-08-31T15:36:25;17.00;85.20
11591;DHT22;5851;54.050;9.974;2023-08-31T15:38:52;17.00;85.00
11591;DHT22;5851;54.050;9.974;2023-08-31T15:41:20;16.90;84.80
11591;DHT22;5851;54.050;9.974;2023-08-31T15:43:47;16.90;84.80
11591;DHT22;5851;54.050;9.974;2023-08-31T15:46:16;17.00;83.90
11591;DHT22;5851;54.050;9.974;2023-08-31T15:48:44;17.00;83.80
11591;DHT22;5851;54.050;9.974;2023-08-31T15:51:12;17.10;83.20